EYSA/SQQ METAR and TAF weather

Enter ICAO airport designator
Station Type Date Time Source
EYSA METAR 2018/12/11 00:50 UTC NOAA

EYSA 110050Z AUTO 21007KT 1800NDV FG OVC002 M00/// Q1004 R14L/29//95


Station Type Date Time Source
EYSA Decoded METAR 2018/12/11 00:50 UTC NOAA

Siauliai Intl./Mil., Lithuania (EYSA) 55-53-38N 023-23-42E
Dec 10, 2018 - 07:50 PM EST / 2018.12.11 0050 UTC
Wind: from the SSW (210 degrees) at 8 MPH (7 KT):0
Sky conditions: overcast
Weather: fog
Temperature: 32 F (0 C)
Windchill: 24 F (-4 C):1
Pressure (altimeter): 29.65 in. Hg (1004 hPa)
ob: EYSA 110050Z AUTO 21007KT 1800NDV FG OVC002 M00/// Q1004 R14L/29//95
cycle: 1

Station Type Date Time Source
EYSA TAF 2018/07/30 06:03 UTC NOAA

TAF TAF EYSA 300500Z 3006/3018 10007KT CAVOK


Example: see airport list